createdAt,value
2019-03-13T17:28:33.348Z,98469.02
2019-03-13T17:31:01.641Z,98478.20
2019-03-13T17:33:29.933Z,98475.03
2019-03-13T17:35:58.275Z,98477.25
2019-03-13T17:39:24.299Z,98475.84
2019-03-13T17:41:52.654Z,98482.09
2019-03-13T17:44:20.938Z,98479.70
2019-03-13T17:46:49.283Z,98488.97
2019-03-13T17:49:17.643Z,98487.18
2019-03-13T17:51:48.371Z,98488.13
2019-03-13T17:54:16.047Z,98487.59
2019-03-13T17:56:44.394Z,98487.15
2019-03-13T17:59:12.782Z,98483.34
2019-03-13T18:01:41.146Z,98487.14
2019-03-13T18:04:09.461Z,98487.08
2019-03-13T18:06:37.802Z,98493.58
2019-03-13T18:09:06.080Z,98490.55
2019-03-13T18:11:34.363Z,98485.17
2019-03-13T18:14:02.668Z,98482.00
2019-03-13T18:16:31.025Z,98481.85
2019-03-13T18:18:59.330Z,98470.48
2019-03-13T18:21:27.656Z,98482.15
2019-03-13T18:23:56.001Z,98481.02
2019-03-13T18:26:24.310Z,98490.31
2019-03-13T18:28:52.687Z,98494.17
2019-03-13T18:31:20.983Z,98487.30
2019-03-13T18:33:49.277Z,98483.73
2019-03-13T18:36:17.768Z,98486.53
2019-03-13T18:38:46.037Z,98483.40
2019-03-13T18:41:14.383Z,98488.84
2019-03-13T18:43:42.713Z,98487.56
2019-03-13T18:46:11.011Z,98487.06
2019-03-13T18:48:39.334Z,98489.39
2019-03-13T18:51:07.621Z,98485.95
2019-03-13T18:53:35.932Z,98484.77
2019-03-13T18:56:04.254Z,98488.16
2019-03-13T18:58:34.842Z,98484.52
2019-03-13T19:01:03.352Z,98478.70
2019-03-13T19:03:31.645Z,98484.30
2019-03-13T19:06:00.200Z,98476.36
2019-03-13T19:08:28.853Z,98481.20
2019-03-13T19:10:57.132Z,98475.48
2019-03-13T19:13:25.478Z,98486.97
2019-03-13T19:15:54.597Z,98483.67
2019-03-13T19:18:22.876Z,98483.20
2019-03-13T19:20:53.907Z,98482.59
2019-03-13T19:23:22.396Z,98483.43
2019-03-13T19:25:50.666Z,98481.11
2019-03-13T19:28:19.021Z,98481.92
2019-03-13T19:30:47.284Z,98481.29
2019-03-13T19:33:15.565Z,98483.99
2019-03-13T19:35:43.874Z,98486.94
2019-03-13T19:38:16.509Z,98489.45
2019-03-13T19:40:44.884Z,98484.50
2019-03-13T19:43:13.195Z,98492.44
2019-03-13T19:45:50.525Z,98489.17
2019-03-13T19:48:18.805Z,98499.23
2019-03-13T19:50:47.090Z,98495.67
2019-03-13T19:53:15.444Z,98486.81
2019-03-13T19:55:43.833Z,98491.79
2019-03-13T19:58:12.124Z,98499.35
2019-03-13T20:00:40.496Z,98498.59
2019-03-13T20:03:13.551Z,98501.00
2019-03-13T20:05:46.047Z,98506.81
2019-03-13T20:08:13.651Z,98505.09
2019-03-13T20:10:41.348Z,98508.81
2019-03-13T20:13:10.002Z,98508.17
2019-03-13T20:15:38.336Z,98506.99
2019-03-13T20:18:06.619Z,98510.26
2019-03-13T20:20:34.895Z,98504.30
2019-03-13T20:23:04.965Z,98499.91
2019-03-13T20:25:32.592Z,98510.10
2019-03-13T20:28:00.874Z,98514.63
2019-03-13T20:30:29.277Z,98515.24
2019-03-13T20:32:57.631Z,98516.30
2019-03-13T20:35:25.929Z,98519.06
2019-03-13T20:37:54.241Z,98513.88
2019-03-13T20:40:26.488Z,98515.19
2019-03-13T20:42:54.763Z,98514.55
2019-03-13T20:45:30.962Z,98517.39
2019-03-13T20:47:59.339Z,98516.63
2019-03-13T20:50:36.704Z,98514.75
2019-03-13T20:52:57.110Z,98510.63
2019-03-13T20:55:25.462Z,98503.98
2019-03-13T20:57:53.902Z,98497.11
2019-03-13T21:00:26.004Z,98494.94
2019-03-13T21:02:55.342Z,98495.48
2019-03-13T21:05:23.726Z,98495.19
2019-03-13T21:07:52.148Z,98488.35
2019-03-13T21:10:20.516Z,98481.11
2019-03-13T21:12:48.791Z,98476.60
2019-03-13T21:15:20.395Z,98469.40
2019-03-13T21:17:48.649Z,98461.28
2019-03-13T21:20:17.761Z,98471.67
2019-03-13T21:22:46.075Z,98466.06
2019-03-13T21:25:18.730Z,98470.51
2019-03-13T21:27:48.056Z,98472.33
2019-03-13T21:30:24.771Z,98468.52
2019-03-13T21:32:53.053Z,98442.70
2019-03-13T21:35:21.499Z,98477.16
2019-03-13T21:39:11.638Z,98462.60
2019-03-13T21:41:42.895Z,98467.13
2019-03-13T21:44:13.868Z,98467.92
2019-03-13T21:46:44.831Z,98468.91
2019-03-13T21:49:15.811Z,98468.92
2019-03-13T21:51:48.262Z,98461.80
2019-03-13T21:54:19.543Z,98460.55
2019-03-13T21:56:50.471Z,98467.36
2019-03-13T21:59:21.467Z,98468.84
2019-03-13T22:01:53.894Z,98467.06
2019-03-13T22:04:25.173Z,98466.42
2019-03-13T22:06:56.153Z,98462.35
2019-03-13T22:09:27.131Z,98460.49
2019-03-13T22:11:58.048Z,98459.66
2019-03-13T22:14:29.039Z,98459.61
2019-03-13T22:16:59.978Z,98452.97
2019-03-13T22:19:30.930Z,98457.27
2019-03-13T22:24:40.762Z,98447.06
2019-03-13T22:27:14.962Z,98449.16
2019-03-13T22:29:48.492Z,98453.41
2019-03-13T22:32:19.805Z,98445.22
2019-03-13T22:34:50.762Z,98449.39
2019-03-13T22:37:21.684Z,98449.46
2019-03-13T22:39:52.646Z,98446.26
2019-03-13T22:42:23.610Z,98444.08
2019-03-13T22:44:54.882Z,98441.75
2019-03-13T22:47:26.029Z,98443.57
2019-03-13T22:49:56.985Z,98437.95
2019-03-13T22:52:28.001Z,98438.52
2019-03-13T22:54:59.013Z,98436.33
2019-03-13T22:57:29.873Z,98421.58
2019-03-13T23:00:00.779Z,98413.73
2019-03-13T23:02:31.890Z,98411.19
2019-03-13T23:05:03.855Z,98405.69
2019-03-13T23:07:34.835Z,98397.25
2019-03-13T23:10:24.236Z,98399.75
2019-03-13T23:12:55.362Z,98399.89
2019-03-13T23:15:26.357Z,98398.36
2019-03-13T23:17:57.571Z,98398.56
2019-03-13T23:20:28.462Z,98400.45
2019-03-13T23:23:00.327Z,98401.05
2019-03-13T23:25:31.287Z,98400.45
2019-03-13T23:28:02.745Z,98403.03
2019-03-13T23:30:33.637Z,98393.02
2019-03-13T23:33:04.595Z,98389.09
2019-03-13T23:35:35.497Z,98388.12
2019-03-13T23:38:06.422Z,98390.03
2019-03-13T23:40:37.333Z,98389.39
2019-03-13T23:43:08.287Z,98384.80
2019-03-13T23:45:39.222Z,98386.86
2019-03-13T23:48:10.181Z,98379.23
2019-03-13T23:50:41.099Z,98379.63
2019-03-13T23:53:12.019Z,98373.98
2019-03-13T23:55:42.968Z,98376.80
2019-03-13T23:58:13.883Z,98373.43
